CDT,Max TemperatureF,Mean TemperatureF,Min TemperatureF,Max Dew PointF,MeanDew PointF,Min DewpointF,Max Humidity, Mean Humidity, Min Humidity, Max Sea Level PressureIn, Mean Sea Level PressureIn, Min Sea Level PressureIn, Max VisibilityMiles, Mean VisibilityMiles, Min VisibilityMiles, Max Wind SpeedMPH, Mean Wind SpeedMPH, Max Gust SpeedMPH,PrecipitationIn, CloudCover, Events, WindDirDegrees
2011-10-1,82,63,44,45,38,32,87,43,17,30.29,30.23,30.18,10,10,10,8,1,,0.00,0,,85
2011-10-2,86,68,50,41,38,34,62,38,16,30.29,30.21,30.14,10,10,10,16,6,17,0.00,0,,153
2011-10-3,89,72,55,41,37,36,51,31,16,30.25,30.19,30.14,10,10,10,15,9,20,0.00,0,,165
2011-10-4,89,74,59,45,39,34,42,29,18,30.25,30.18,30.12,10,10,10,14,9,18,0.00,0,,159
2011-10-5,86,72,57,48,41,36,48,36,23,30.16,30.11,30.03,10,10,10,21,9,28,0.00,0,,156
2011-10-6,89,78,66,52,47,41,49,35,22,30.05,30.00,29.92,10,10,10,23,12,33,0.00,1,Rain,157
2011-10-7,82,76,71,63,58,46,65,53,38,30.08,30.02,29.97,10,10,10,22,15,32,0.00,5,,158
2011-10-8,86,75,64,63,59,54,94,64,35,30.12,30.05,29.98,10,10,7,22,14,29,0.07,4,Rain-Thunderstorm,165
2011-10-9,69,64,59,68,62,59,100,93,83,30.11,30.06,29.99,10,9,2,15,5,22,1.68,7,Rain,321
2011-10-10,73,64,55,59,57,52,100,85,50,30.13,30.06,30.01,10,8,2,9,4,,0.01,5,Rain,337
2011-10-11,80,66,51,63,54,48,94,70,39,30.01,29.92,29.82,10,9,5,13,3,,0.00,0,,189
2011-10-12,80,70,60,63,59,48,94,75,42,29.91,29.81,29.78,10,10,10,17,5,21,0.00,2,Rain-Thunderstorm,282
2011-10-13,78,66,53,46,42,37,67,46,23,30.02,29.96,29.91,10,10,10,17,9,26,0.00,0,,326
2011-10-14,86,68,51,50,44,41,72,48,22,30.00,29.96,29.92,10,10,10,16,4,20,0.00,0,,198
2011-10-15,89,71,53,50,44,37,63,42,24,30.12,30.06,30.00,10,10,10,15,7,20,0.00,0,,126
2011-10-16,89,74,60,54,51,48,63,44,27,30.02,29.98,29.91,10,10,10,18,10,24,0.00,0,,210
2011-10-17,89,73,57,59,54,34,88,60,35,29.95,29.81,29.66,10,10,10,25,7,36,0.00,1,,191
2011-10-18,64,55,46,41,33,27,71,44,26,30.12,30.05,29.96,10,10,10,26,18,37,0.00,2,,345
2011-10-19,60,50,41,32,31,28,70,48,31,30.13,30.09,30.06,10,10,10,26,11,34,0.00,0,,332
2011-10-20,73,53,33,37,32,28,87,52,25,30.13,30.08,30.02,10,10,10,7,1,,0.00,0,,132
2011-10-21,80,62,44,46,39,32,66,46,30,30.19,30.13,30.09,10,10,10,10,5,,0.00,0,,137
2011-10-22,82,66,51,61,50,43,77,59,42,30.11,30.04,29.89,10,10,10,14,7,18,0.00,1,,149
2011-10-23,78,66,55,59,55,52,100,74,39,30.09,30.05,29.99,10,10,7,9,3,,0.00,3,Rain,32
2011-10-24,82,68,53,61,53,45,100,68,30,30.20,30.15,30.09,10,9,2,20,7,24,0.00,0,,201
2011-10-25,86,74,62,59,55,52,77,56,33,30.09,29.96,29.85,10,10,10,30,15,39,0.00,0,,190
2011-10-26,71,64,57,55,49,43,88,61,52,30.03,29.92,29.83,10,10,10,16,10,21,0.00,4,,350
2011-10-27,55,50,44,46,44,39,100,84,58,30.16,30.09,30.00,10,9,4,20,10,30,0.63,8,Rain-Thunderstorm,15
2011-10-28,60,50,39,45,38,32,100,69,36,30.31,30.25,30.19,10,9,4,12,2,17,0.00,1,,350
2011-10-29,66,52,37,37,34,30,87,58,28,30.27,30.21,30.05,10,10,10,17,5,23,0.00,0,,211
2011-10-30,69,56,44,41,37,34,66,50,33,30.20,30.12,30.04,10,10,10,14,9,20,0.00,0,,222
2011-10-31,73,55,37,46,41,34,87,57,35,30.21,30.15,30.07,10,10,7,17,4,20,0.00,0,,194